Time;durP1;ratioP1;P1;durP2;ratioP2;P2;SDS_P1;SDS_P2;PMS_P1;PMS_P2;Temp;Humidity;BMP_temperature;BMP_pressure;BME280_temperature;BME280_humidity;BME280_pressure;Samples;Min_cycle;Max_cycle;Signal;HPM_P1;HPM_P2
2021/11/12 00:12:40;;;;;;;23.75;2.70;;;;;;;;;;4913554;29;20079;-68
2021/11/12 00:15:06;;;;;;;;;;;;;;;;;;4979741;28;20081;-68
2021/11/12 00:17:34;;;;;;;26.38;3.42;;;;;;;;;;5011532;28;19979;-69
2021/11/12 00:20:00;;;;;;;23.40;2.83;;;;;;;;;;5007838;28;20515;-68
2021/11/12 00:22:27;;;;;;;29.27;3.60;;;;;;;;;;5001342;28;20097;-69
2021/11/12 00:24:55;;;;;;;23.50;3.03;;;;;;;;;;5004379;28;20116;-68
2021/11/12 00:27:23;;;;;;;21.95;3.72;;;;;;;;;;5009804;28;20041;-68
2021/11/12 00:30:00;;;;;;;21.88;2.80;;;;;;;;;;5004935;28;20081;-68
2021/11/12 00:35:36;;;;;;;21.52;2.97;;;;;;;;;;5005369;28;20097;-68
2021/11/12 00:38:10;;;;;;;17.42;2.63;;;;;;;;;;5000293;28;20121;-68
2021/11/12 00:43:30;;;;;;;19.17;2.38;;;;;;;;;;5007262;28;20085;-68
2021/11/12 00:46:23;;;;;;;24.77;2.95;;;;;;;;;;5009344;28;20081;-68
2021/11/12 00:48:56;;;;;;;22.90;2.65;;;;;;;;;;5001045;28;20493;-68
2021/11/12 00:51:25;;;;;;;28.35;3.10;;;;;;;;;;5010923;28;20089;-68
2021/11/12 00:56:19;;;;;;;24.48;2.97;;;;;;;;;;5006233;28;20553;-68
2021/11/12 00:58:46;;;;;;;30.23;3.15;;;;;;;;;;5006879;28;20141;-68
2021/11/12 01:01:13;;;;;;;26.15;2.50;;;;;;;;;;5005663;28;20050;-68
2021/11/12 01:03:40;;;;;;;29.42;3.22;;;;;;;;;;5006697;28;20050;-69
2021/11/12 01:06:06;;;;;;;34.78;3.28;;;;;;;;;;5007859;28;20128;-68
2021/11/12 01:08:33;;;;;;;25.30;3.20;;;;;;;;;;5006689;28;20112;-68
2021/11/12 01:11:00;;;;;;;14.53;2.03;;;;;;;;;;5005269;28;20108;-68
2021/11/12 01:13:26;;;;;;;24.90;3.08;;;;;;;;;;5002867;28;20081;-68
2021/11/12 01:15:53;;;;;;;29.27;3.17;;;;;;;;;;5004008;28;20153;-68
2021/11/12 01:18:20;;;;;;;22.40;3.38;;;;;;;;;;5003865;28;20533;-68
2021/11/12 01:20:47;;;;;;;29.80;3.70;;;;;;;;;;5004712;28;20074;-68
2021/11/12 01:23:14;;;;;;;25.17;2.70;;;;;;;;;;5004782;28;20128;-68
2021/11/12 01:25:42;;;;;;;30.90;3.30;;;;;;;;;;5002490;28;20074;-68
2021/11/12 01:28:08;;;;;;;;;;;;;;;;;;5005576;28;20054;-68
2021/11/12 01:30:35;;;;;;;31.92;2.88;;;;;;;;;;5005268;28;20416;-68
2021/11/12 01:33:03;;;;;;;27.30;2.80;;;;;;;;;;4998997;28;20137;-68
2021/11/12 01:35:31;;;;;;;32.95;3.08;;;;;;;;;;5011939;28;20041;-68
2021/11/12 01:37:58;;;;;;;31.67;2.90;;;;;;;;;;5004673;28;20092;-68
2021/11/12 01:40:26;;;;;;;18.70;2.95;;;;;;;;;;5004514;28;20502;-68
2021/11/12 01:42:53;;;;;;;;;;;;;;;;;;5009274;28;20105;-69
2021/11/12 01:45:29;;;;;;;25.45;3.80;;;;;;;;;;5005539;28;19965;-68
2021/11/12 01:48:23;;;;;;;37.22;3.70;;;;;;;;;;5005358;28;20591;-68
2021/11/12 01:50:45;;;;;;;23.45;2.95;;;;;;;;;;5003377;28;20085;-68
2021/11/12 01:53:13;;;;;;;22.25;3.00;;;;;;;;;;5005733;28;20561;-68
2021/11/12 01:55:45;;;;;;;30.92;3.22;;;;;;;;;;5001961;28;20148;-68
2021/11/12 01:58:38;;;;;;;26.38;2.80;;;;;;;;;;5004822;28;20089;-68
2021/11/12 02:01:05;;;;;;;27.88;3.20;;;;;;;;;;5008700;28;20133;-68
2021/11/12 02:03:32;;;;;;;27.88;3.20;;;;;;;;;;5002139;28;20053;-68
2021/11/12 02:05:58;;;;;;;36.38;2.90;;;;;;;;;;5007404;28;20085;-68
2021/11/12 02:08:25;;;;;;;22.65;3.15;;;;;;;;;;5003703;28;20096;-68
2021/11/12 02:10:51;;;;;;;36.63;3.17;;;;;;;;;;5002502;28;20557;-68
2021/11/12 02:13:20;;;;;;;28.05;2.75;;;;;;;;;;5007249;28;20094;-68
2021/11/12 02:15:47;;;;;;;21.42;3.03;;;;;;;;;;5004156;28;20490;-68
2021/11/12 02:18:25;;;;;;;23.55;2.88;;;;;;;;;;5005400;28;20085;-68
2021/11/12 02:20:58;;;;;;;26.10;2.70;;;;;;;;;;5001547;28;20070;-68
2021/11/12 02:24:04;;;;;;;19.67;2.50;;;;;;;;;;4994193;28;20129;-68
2021/11/12 02:26:23;;;;;;;22.00;3.60;;;;;;;;;;5002276;28;20452;-68
2021/11/12 02:28:54;;;;;;;22.58;2.75;;;;;;;;;;5005079;28;20577;-68
2021/11/12 02:31:21;;;;;;;23.52;2.88;;;;;;;;;;5004101;28;20145;-68
2021/11/12 02:33:48;;;;;;;;;;;;;;;;;;5004781;28;20049;-68
2021/11/12 02:36:16;;;;;;;29.55;3.20;;;;;;;;;;5005015;28;19969;-68
2021/11/12 02:38:47;;;;;;;23.42;2.80;;;;;;;;;;5007171;28;20132;-68
2021/11/12 02:41:14;;;;;;;33.80;3.40;;;;;;;;;;5003444;28;20148;-68
2021/11/12 02:43:42;;;;;;;34.17;2.90;;;;;;;;;;5003590;28;20139;-68
2021/11/12 02:46:10;;;;;;;34.17;3.20;;;;;;;;;;5000448;28;20100;-68
2021/11/12 02:48:39;;;;;;;20.50;2.67;;;;;;;;;;5001667;28;20482;-68
2021/11/12 02:51:09;;;;;;;21.48;2.70;;;;;;;;;;5000441;28;20140;-68
2021/11/12 02:53:36;;;;;;;32.10;5.10;;;;;;;;;;4998579;28;20082;-68
2021/11/12 02:56:05;;;;;;;31.35;4.10;;;;;;;;;;5008693;28;20461;-68
2021/11/12 02:58:32;;;;;;;28.35;3.40;;;;;;;;;;5003964;28;20081;-68
2021/11/12 03:00:59;;;;;;;25.38;2.80;;;;;;;;;;5004839;28;20084;-68
2021/11/12 03:03:27;;;;;;;18.20;2.53;;;;;;;;;;5005814;28;20085;-68
2021/11/12 03:05:54;;;;;;;30.80;2.70;;;;;;;;;;5005683;28;20261;-68
2021/11/12 03:08:20;;;;;;;27.50;2.95;;;;;;;;;;5000678;28;20085;-68
2021/11/12 03:10:49;;;;;;;26.00;2.65;;;;;;;;;;5002495;28;20075;-68
2021/11/12 03:13:16;;;;;;;19.17;2.78;;;;;;;;;;5010443;28;20472;-68
2021/11/12 03:15:42;;;;;;;24.77;3.45;;;;;;;;;;5002675;28;20097;-68
2021/11/12 03:18:11;;;;;;;33.03;3.97;;;;;;;;;;5001779;28;20058;-68
2021/11/12 03:20:39;;;;;;;22.00;3.00;;;;;;;;;;5001557;28;20085;-68
2021/11/12 03:23:11;;;;;;;;;;;;;;;;;;5006953;28;20129;-68
2021/11/12 03:47:13;;;;;;;33.75;3.10;;;;;;;;;;5004537;28;20089;-68
2021/11/12 03:50:05;;;;;;;26.52;2.97;;;;;;;;;;5005902;28;20053;-68
2021/11/12 04:19:42;;;;;;;30.30;3.03;;;;;;;;;;4997774;28;20086;-69
2021/11/12 04:41:31;;;;;;;17.25;2.75;;;;;;;;;;4988293;28;20089;-69
2021/11/12 05:26:12;;;;;;;33.22;2.85;;;;;;;;;;4981014;28;20549;-68
2021/11/12 05:44:43;;;;;;;29.27;2.55;;;;;;;;;;5010730;28;20126;-69
2021/11/12 05:55:09;;;;;;;24.67;2.90;;;;;;;;;;4978897;28;20085;-68
2021/11/12 05:57:37;;;;;;;31.00;3.17;;;;;;;;;;5006265;28;20565;-68
2021/11/12 06:00:05;;;;;;;60.95;4.68;;;;;;;;;;5004430;28;20096;-68
2021/11/12 06:02:33;;;;;;;212.48;7.53;;;;;;;;;;4993892;28;20085;-68
2021/11/12 06:04:59;;;;;;;;;;;;;;;;;;5006828;28;20128;-68
2021/11/12 06:07:26;;;;;;;16.15;2.38;;;;;;;;;;5002767;28;19975;-68
2021/11/12 06:09:52;;;;;;;21.70;2.95;;;;;;;;;;5005874;28;20133;-68
2021/11/12 06:12:19;;;;;;;30.77;2.70;;;;;;;;;;5005569;28;20081;-69
2021/11/12 06:14:46;;;;;;;14.68;1.90;;;;;;;;;;5000538;28;20574;-68
2021/11/12 06:17:12;;;;;;;22.75;2.42;;;;;;;;;;5001646;28;20482;-68
2021/11/12 06:19:39;;;;;;;27.90;3.13;;;;;;;;;;5005246;28;20069;-68
2021/11/12 06:22:06;;;;;;;21.23;2.10;;;;;;;;;;5005062;28;20050;-68
2021/11/12 06:24:33;;;;;;;12.40;2.35;;;;;;;;;;5006729;28;20133;-68
2021/11/12 06:26:59;;;;;;;21.52;3.15;;;;;;;;;;5008113;28;20129;-69
2021/11/12 06:29:26;;;;;;;14.85;1.50;;;;;;;;;;5004893;28;20058;-68
2021/11/12 06:31:54;;;;;;;26.23;2.45;;;;;;;;;;5003332;28;20474;-68
2021/11/12 06:34:21;;;;;;;31.63;2.53;;;;;;;;;;5010503;28;20145;-68
2021/11/12 06:36:48;;;;;;;15.50;1.88;;;;;;;;;;5005861;28;20077;-68
2021/11/12 06:39:15;;;;;;;29.27;2.30;;;;;;;;;;5001394;28;20129;-68
2021/11/12 06:45:04;;;;;;;8.70;1.73;;;;;;;;;;5001048;28;20050;-68
2021/11/12 06:49:59;;;;;;;23.90;3.08;;;;;;;;;;5006463;28;20045;-68
2021/11/12 06:52:26;;;;;;;31.13;4.40;;;;;;;;;;5000002;28;20054;-68
2021/11/12 06:54:54;;;;;;;;;;;;;;;;;;5005871;28;20081;-68
2021/11/12 06:57:20;;;;;;;41.28;5.18;;;;;;;;;;4996543;28;19921;-68
2021/11/12 06:59:48;;;;;;;23.67;3.03;;;;;;;;;;5002362;28;20074;-68
2021/11/12 07:02:16;;;;;;;13.98;2.83;;;;;;;;;;4999496;28;20130;-68
2021/11/12 07:04:43;;;;;;;14.38;2.78;;;;;;;;;;5000900;28;20586;-68
2021/11/12 07:07:09;;;;;;;18.42;3.00;;;;;;;;;;4998839;28;20747;-68
2021/11/12 07:09:39;;;;;;;22.45;4.22;;;;;;;;;;5009303;28;20049;-68
2021/11/12 07:12:06;;;;;;;22.35;2.80;;;;;;;;;;5004671;28;20050;-68
2021/11/12 07:14:32;;;;;;;12.97;2.87;;;;;;;;;;5003052;28;20081;-68
2021/11/12 07:16:59;;;;;;;22.77;2.57;;;;;;;;;;5004626;28;20142;-68
2021/11/12 07:19:25;;;;;;;15.70;2.75;;;;;;;;;;5007342;28;20372;-68
2021/11/12 07:21:54;;;;;;;19.10;2.53;;;;;;;;;;5007178;28;20049;-68
2021/11/12 07:24:21;;;;;;;27.58;2.65;;;;;;;;;;5006418;28;20088;-68
2021/11/12 07:26:47;;;;;;;16.03;2.57;;;;;;;;;;5001242;28;20073;-68
2021/11/12 07:29:14;;;;;;;17.20;2.05;;;;;;;;;;5005396;28;20458;-68
2021/11/12 07:31:41;;;;;;;9.00;1.60;;;;;;;;;;4997174;28;20046;-68
2021/11/12 07:34:08;;;;;;;14.35;2.10;;;;;;;;;;5009326;28;20077;-68
2021/11/12 07:36:37;;;;;;;12.02;1.95;;;;;;;;;;5002124;28;20085;-68
2021/11/12 07:39:09;;;;;;;16.30;2.97;;;;;;;;;;5002948;28;20525;-68
2021/11/12 07:42:04;;;;;;;22.83;3.85;;;;;;;;;;5003373;28;20054;-68
2021/11/12 07:47:15;;;;;;;13.82;3.42;;;;;;;;;;5002058;28;20109;-68
2021/11/12 07:49:47;;;;;;;8.75;2.58;;;;;;;;;;5005971;28;20084;-68
2021/11/12 07:52:17;;;;;;;17.67;3.40;;;;;;;;;;5007440;28;20078;-68
2021/11/12 07:54:45;;;;;;;13.00;2.88;;;;;;;;;;5000614;28;20082;-68
2021/11/12 07:57:11;;;;;;;12.60;3.50;;;;;;;;;;4995192;28;20560;-68
2021/11/12 07:59:38;;;;;;;17.80;2.90;;;;;;;;;;4998502;28;20078;-68
2021/11/12 08:02:06;;;;;;;16.02;2.95;;;;;;;;;;4997899;28;20513;-69
2021/11/12 08:04:35;;;;;;;15.05;3.10;;;;;;;;;;5001793;28;20058;-68
2021/11/12 08:07:01;;;;;;;15.73;3.20;;;;;;;;;;5003735;28;20134;-68
2021/11/12 08:09:34;;;;;;;19.25;3.60;;;;;;;;;;5001726;28;20498;-68
2021/11/12 08:12:06;;;;;;;22.92;2.60;;;;;;;;;;4997288;28;20129;-68
2021/11/12 08:14:40;;;;;;;22.02;3.60;;;;;;;;;;5006545;28;20086;-68
2021/11/12 08:17:19;;;;;;;13.55;3.85;;;;;;;;;;5008772;28;20050;-68
2021/11/12 08:19:51;;;;;;;20.20;3.28;;;;;;;;;;5000317;28;20077;-68
2021/11/12 08:22:36;;;;;;;19.30;4.00;;;;;;;;;;5013560;28;20123;-68
2021/11/12 08:33:02;;;;;;;15.73;2.40;;;;;;;;;;5004960;28;20129;-68
2021/11/12 08:41:30;;;;;;;12.57;2.63;;;;;;;;;;5008455;28;20708;-69
2021/11/12 08:44:04;;;;;;;10.52;2.42;;;;;;;;;;5008049;28;20132;-68
2021/11/12 08:49:10;;;;;;;12.52;2.17;;;;;;;;;;5009839;28;20506;-69
2021/11/12 08:51:38;;;;;;;13.25;2.50;;;;;;;;;;5010456;28;20089;-69
2021/11/12 08:54:05;;;;;;;14.88;2.78;;;;;;;;;;5001460;28;20085;-68
2021/11/12 08:56:32;;;;;;;;;;;;;;;;;;5002695;28;20096;-69
2021/11/12 08:59:00;;;;;;;16.95;2.70;;;;;;;;;;5002735;28;19922;-69
2021/11/12 09:01:26;;;;;;;14.00;3.17;;;;;;;;;;5005054;28;20201;-69
2021/11/12 09:03:54;;;;;;;16.48;2.72;;;;;;;;;;5001209;28;20129;-69
2021/11/12 09:06:23;;;;;;;13.15;2.70;;;;;;;;;;5001455;28;20568;-69
2021/11/12 09:08:50;;;;;;;15.05;2.53;;;;;;;;;;5002990;28;20526;-70
2021/11/12 09:11:17;;;;;;;21.58;3.08;;;;;;;;;;5000924;28;20089;-70
2021/11/12 09:13:47;;;;;;;19.75;3.28;;;;;;;;;;5008757;28;20484;-70
2021/11/12 09:16:15;;;;;;;13.60;2.63;;;;;;;;;;5006475;28;20129;-70
2021/11/12 09:18:43;;;;;;;19.95;2.85;;;;;;;;;;5003994;28;20046;-70
2021/11/12 09:21:11;;;;;;;11.82;3.28;;;;;;;;;;5002888;28;20045;-70
2021/11/12 09:23:37;;;;;;;14.02;2.50;;;;;;;;;;5003437;28;20093;-70
2021/11/12 09:26:04;;;;;;;12.15;2.95;;;;;;;;;;5002933;28;20595;-70
2021/11/12 09:28:33;;;;;;;13.63;2.40;;;;;;;;;;5001180;28;20090;-69
2021/11/12 09:31:00;;;;;;;18.92;2.90;;;;;;;;;;5004934;28;20082;-70
2021/11/12 09:33:27;;;;;;;19.45;3.25;;;;;;;;;;4995625;28;20050;-69
2021/11/12 09:35:54;;;;;;;13.13;2.73;;;;;;;;;;5001131;28;20618;-71
2021/11/12 09:38:20;;;;;;;18.25;3.90;;;;;;;;;;5002827;28;20328;-69
2021/11/12 09:40:47;;;;;;;22.80;3.20;;;;;;;;;;4999434;28;20650;-69
2021/11/12 09:43:14;;;;;;;21.20;3.25;;;;;;;;;;5005196;28;20050;-69
2021/11/12 09:45:41;;;;;;;17.77;3.55;;;;;;;;;;5000183;28;20132;-69
2021/11/12 09:48:08;;;;;;;22.30;3.45;;;;;;;;;;5007076;28;20049;-69
2021/11/12 09:50:35;;;;;;;24.08;3.95;;;;;;;;;;5001065;28;20121;-69
2021/11/12 09:53:02;;;;;;;25.90;3.75;;;;;;;;;;5003312;28;20101;-69
2021/11/12 09:55:30;;;;;;;16.25;2.88;;;;;;;;;;5001307;28;20108;-68
2021/11/12 09:57:58;;;;;;;27.02;3.55;;;;;;;;;;5003468;28;20050;-68
2021/11/12 10:00:25;;;;;;;19.45;3.17;;;;;;;;;;5000672;28;20077;-68
2021/11/12 10:02:53;;;;;;;10.48;3.33;;;;;;;;;;5001745;28;20042;-68
2021/11/12 10:05:46;;;;;;;39.55;4.45;;;;;;;;;;5000150;28;20533;-68
2021/11/12 10:08:31;;;;;;;23.48;3.72;;;;;;;;;;5002416;28;20088;-69
2021/11/12 10:11:00;;;;;;;24.27;3.50;;;;;;;;;;5007818;28;20129;-69
2021/11/12 10:13:32;;;;;;;17.88;3.30;;;;;;;;;;5006224;28;20108;-69
2021/11/12 10:16:13;;;;;;;20.17;3.00;;;;;;;;;;5003944;28;20570;-69
2021/11/12 10:18:59;;;;;;;20.45;2.97;;;;;;;;;;5007254;28;20057;-69
2021/11/12 10:21:34;;;;;;;13.43;2.70;;;;;;;;;;5001905;28;20089;-70
2021/11/12 10:24:01;;;;;;;16.75;3.70;;;;;;;;;;4990802;28;20128;-70
2021/11/12 10:26:30;;;;;;;17.83;3.05;;;;;;;;;;5000026;28;20085;-70
2021/11/12 10:29:01;;;;;;;22.35;3.05;;;;;;;;;;4998135;28;20145;-70
2021/11/12 10:31:27;;;;;;;15.02;2.67;;;;;;;;;;5003988;28;20169;-70
2021/11/12 10:33:54;;;;;;;17.90;3.00;;;;;;;;;;5006600;28;20054;-70
2021/11/12 10:36:21;;;;;;;20.67;3.03;;;;;;;;;;5006906;28;20131;-70
2021/11/12 10:38:49;;;;;;;13.40;2.78;;;;;;;;;;5001875;28;20084;-70
2021/11/12 10:41:23;;;;;;;21.88;3.17;;;;;;;;;;5009968;28;20078;-70
2021/11/12 10:43:50;;;;;;;19.42;3.28;;;;;;;;;;5003866;28;20085;-70
2021/11/12 10:46:33;;;;;;;22.65;3.80;;;;;;;;;;5007074;28;20356;-70
2021/11/12 10:49:19;;;;;;;23.63;3.20;;;;;;;;;;5009172;28;20524;-70
2021/11/12 10:51:52;;;;;;;25.27;3.40;;;;;;;;;;5004025;28;20042;-70
2021/11/12 10:54:58;;;;;;;20.98;3.25;;;;;;;;;;5004681;28;20104;-70
2021/11/12 10:57:29;;;;;;;29.88;3.40;;;;;;;;;;4971819;28;20521;-70
2021/11/12 11:00:18;;;;;;;34.15;3.80;;;;;;;;;;5000398;28;20097;-70
2021/11/12 11:02:47;;;;;;;18.35;3.53;;;;;;;;;;5001527;28;20145;-70
2021/11/12 11:05:15;;;;;;;27.75;3.83;;;;;;;;;;5004449;28;20052;-70
2021/11/12 11:07:46;;;;;;;19.55;3.80;;;;;;;;;;5003461;28;20173;-70
2021/11/12 11:10:27;;;;;;;25.75;3.40;;;;;;;;;;5002276;28;20517;-70
2021/11/12 11:12:55;;;;;;;26.45;3.53;;;;;;;;;;5005253;28;20093;-70
2021/11/12 11:15:27;;;;;;;30.00;4.00;;;;;;;;;;5005522;28;20130;-70
2021/11/12 11:18:06;;;;;;;30.23;3.53;;;;;;;;;;4992699;28;20610;-70
2021/11/12 11:20:34;;;;;;;24.90;3.22;;;;;;;;;;5000262;28;20085;-70
2021/11/12 11:23:01;;;;;;;33.13;4.22;;;;;;;;;;5005182;28;20041;-70
2021/11/12 11:25:28;;;;;;;21.80;3.63;;;;;;;;;;5002194;28;20124;-70
2021/11/12 11:27:56;;;;;;;15.95;3.78;;;;;;;;;;5004798;28;20077;-70
2021/11/12 11:30:23;;;;;;;25.02;3.65;;;;;;;;;;5004366;28;20569;-70
2021/11/12 11:32:49;;;;;;;19.10;3.38;;;;;;;;;;5004634;28;20050;-70
2021/11/12 11:35:17;;;;;;;24.90;3.40;;;;;;;;;;5002795;28;20054;-70
2021/11/12 11:37:44;;;;;;;34.03;3.92;;;;;;;;;;5001552;28;20477;-70
2021/11/12 11:40:12;;;;;;;25.17;3.42;;;;;;;;;;4989745;28;20513;-70
2021/11/12 11:42:40;;;;;;;29.38;3.72;;;;;;;;;;4998563;28;20057;-70
2021/11/12 11:45:07;;;;;;;33.78;4.50;;;;;;;;;;4998790;28;20541;-70
2021/11/12 11:47:34;;;;;;;23.40;4.15;;;;;;;;;;5007457;28;20073;-70
2021/11/12 11:50:01;;;;;;;38.38;4.82;;;;;;;;;;5012448;28;20476;-71
2021/11/12 11:52:29;;;;;;;27.70;3.75;;;;;;;;;;5007137;28;20112;-70
2021/11/12 11:54:56;;;;;;;40.03;4.32;;;;;;;;;;5003542;28;20081;-70
2021/11/12 11:57:24;;;;;;;18.17;3.97;;;;;;;;;;5001942;28;20084;-70
2021/11/12 12:00:09;;;;;;;29.35;3.92;;;;;;;;;;5005595;28;20081;-70
2021/11/12 12:02:36;;;;;;;41.60;4.53;;;;;;;;;;5002010;28;20137;-70
2021/11/12 12:05:07;;;;;;;29.40;5.20;;;;;;;;;;5003190;28;20057;-70
2021/11/12 12:07:42;;;;;;;20.73;4.07;;;;;;;;;;5009668;28;20396;-70
2021/11/12 12:10:08;;;;;;;28.45;4.53;;;;;;;;;;4992553;28;20073;-70
2021/11/12 12:12:35;;;;;;;24.15;3.60;;;;;;;;;;5008121;28;20141;-71
2021/11/12 12:15:05;;;;;;;30.63;4.15;;;;;;;;;;5005630;28;20085;-70
2021/11/12 12:17:32;;;;;;;28.50;4.47;;;;;;;;;;5004455;28;20134;-70
2021/11/12 12:31:08;;;;;;;28.52;3.78;;;;;;;;;;5007870;28;20453;-70
2021/11/12 13:25:25;;;;;;;29.80;4.10;;;;;;;;;;5005304;28;20089;-70
2021/11/12 13:28:11;;;;;;;27.23;3.45;;;;;;;;;;5011396;28;20133;-71
2021/11/12 13:30:39;;;;;;;25.60;3.30;;;;;;;;;;5007770;28;20073;-71
2021/11/12 13:33:43;;;;;;;25.75;3.88;;;;;;;;;;4996400;28;20137;-70
2021/11/12 13:36:15;;;;;;;31.65;3.60;;;;;;;;;;4970027;28;20081;-70
2021/11/12 13:38:48;;;;;;;22.77;3.40;;;;;;;;;;5003805;28;20136;-70
2021/11/12 13:41:15;;;;;;;27.42;3.55;;;;;;;;;;5003337;28;20128;-70
2021/11/12 13:43:43;;;;;;;23.52;3.72;;;;;;;;;;5000284;28;20141;-70
2021/11/12 13:46:10;;;;;;;26.83;3.58;;;;;;;;;;5002970;28;20074;-70
2021/11/12 13:48:41;;;;;;;26.65;3.45;;;;;;;;;;5008400;28;20045;-70
2021/11/12 13:51:07;;;;;;;22.67;3.42;;;;;;;;;;4999453;28;20141;-72
2021/11/12 13:53:34;;;;;;;20.52;3.15;;;;;;;;;;4997460;28;20481;-70
2021/11/12 13:56:01;;;;;;;21.73;3.10;;;;;;;;;;4998291;28;20065;-70
2021/11/12 13:58:28;;;;;;;30.50;3.33;;;;;;;;;;4999560;28;20347;-70
2021/11/12 14:00:55;;;;;;;25.83;3.50;;;;;;;;;;4998567;28;20387;-70
2021/11/12 14:03:51;;;;;;;25.52;3.42;;;;;;;;;;4999750;28;20438;-70
2021/11/12 14:06:20;;;;;;;21.83;3.40;;;;;;;;;;4997132;28;20302;-71
2021/11/12 14:08:48;;;;;;;17.48;4.00;;;;;;;;;;5003407;28;20132;-70
2021/11/12 14:11:16;;;;;;;28.58;3.70;;;;;;;;;;5003706;28;20092;-70
2021/11/12 14:13:45;;;;;;;22.73;3.42;;;;;;;;;;5003033;28;20088;-70
2021/11/12 14:16:24;;;;;;;25.55;3.95;;;;;;;;;;4997610;28;20569;-70
2021/11/12 14:21:46;;;;;;;27.85;3.67;;;;;;;;;;4998172;28;20096;-70
2021/11/12 14:46:13;;;;;;;20.02;5.80;;;;;;;;;;4995953;28;20184;-71
2021/11/12 14:51:21;;;;;;;33.25;7.03;;;;;;;;;;5001873;28;20080;-70
2021/11/12 14:56:34;;;;;;;32.92;5.45;;;;;;;;;;5000231;28;20054;-70
2021/11/12 14:59:05;;;;;;;30.88;4.20;;;;;;;;;;5003611;28;20077;-70
2021/11/12 15:01:33;;;;;;;31.90;4.88;;;;;;;;;;5001459;28;20077;-70
2021/11/12 15:04:00;;;;;;;30.77;4.90;;;;;;;;;;4998188;28;20097;-70
2021/11/12 15:06:27;;;;;;;30.65;5.57;;;;;;;;;;4993045;28;20054;-70
2021/11/12 15:09:03;;;;;;;37.28;4.93;;;;;;;;;;5005508;28;20074;-70
2021/11/12 15:11:31;;;;;;;27.85;6.28;;;;;;;;;;4993245;28;20116;-70
2021/11/12 15:14:05;;;;;;;;;;;;;;;;;;4998700;28;20073;-70
2021/11/12 15:16:33;;;;;;;23.08;3.65;;;;;;;;;;4995982;28;19925;-70
2021/11/12 15:19:04;;;;;;;30.77;4.20;;;;;;;;;;4988491;28;20053;-70
2021/11/12 15:24:31;;;;;;;29.13;5.07;;;;;;;;;;4991483;28;20145;-70
2021/11/12 15:29:44;;;;;;;23.25;3.58;;;;;;;;;;4999486;28;20092;-69
2021/11/12 15:34:53;;;;;;;29.35;8.07;;;;;;;;;;4994586;28;20141;-70
2021/11/12 15:39:57;;;;;;;41.13;6.15;;;;;;;;;;4997943;28;20121;-70
2021/11/12 15:45:05;;;;;;;32.28;6.05;;;;;;;;;;4995706;28;20136;-70
2021/11/12 15:47:33;;;;;;;36.13;5.68;;;;;;;;;;4995267;28;20574;-70
2021/11/12 15:56:41;;;;;;;;;;;;;;;;;;5000405;28;20089;-70
2021/11/12 16:03:52;;;;;;;31.23;4.18;;;;;;;;;;4999245;28;20478;-70
2021/11/12 16:06:49;;;;;;;28.35;4.55;;;;;;;;;;5003292;28;20082;-70
2021/11/12 16:11:42;;;;;;;42.80;6.80;;;;;;;;;;4998761;28;20053;-70
2021/11/12 16:14:24;;;;;;;25.17;6.00;;;;;;;;;;5001123;28;20101;-70
2021/11/12 16:19:40;;;;;;;31.75;5.30;;;;;;;;;;4999905;28;20464;-70
2021/11/12 16:25:09;;;;;;;27.90;4.70;;;;;;;;;;4997301;28;20129;-70
2021/11/12 16:27:41;;;;;;;25.30;4.80;;;;;;;;;;4996785;28;20085;-71
2021/11/12 16:30:09;;;;;;;40.30;6.47;;;;;;;;;;4988894;28;20200;-70
2021/11/12 16:32:44;;;;;;;31.23;6.65;;;;;;;;;;4998353;28;20132;-70
2021/11/12 16:35:14;;;;;;;38.88;5.25;;;;;;;;;;5006758;28;20061;-70
2021/11/12 16:37:41;;;;;;;34.22;5.38;;;;;;;;;;5003897;28;20077;-70
2021/11/12 16:40:17;;;;;;;35.60;7.80;;;;;;;;;;5002182;28;20133;-70
2021/11/12 16:42:56;;;;;;;34.42;6.47;;;;;;;;;;5000594;28;20081;-69
2021/11/12 16:48:10;;;;;;;27.85;6.38;;;;;;;;;;5008260;28;20145;-70
2021/11/12 16:51:10;;;;;;;49.88;8.32;;;;;;;;;;5008487;28;20081;-70
2021/11/12 17:04:32;;;;;;;32.00;4.97;;;;;;;;;;5003791;28;20046;-70
2021/11/12 17:17:33;;;;;;;28.13;5.32;;;;;;;;;;4995447;28;20560;-70
2021/11/12 17:44:53;;;;;;;20.75;3.63;;;;;;;;;;4977620;28;20125;-70
2021/11/12 17:47:20;;;;;;;25.48;5.18;;;;;;;;;;4960989;28;20138;-70
2021/11/12 18:03:40;;;;;;;26.35;4.88;;;;;;;;;;4975059;28;20423;-69
2021/11/12 18:09:16;;;;;;;16.73;3.58;;;;;;;;;;4977307;28;20129;-70
2021/11/12 18:17:22;;;;;;;14.07;3.30;;;;;;;;;;4977308;28;20096;-70
2021/11/12 21:48:22;;;;;;;13.88;3.33;;;;;;;;;;5004102;28;20050;-69
2021/11/12 21:50:51;;;;;;;18.42;4.13;;;;;;;;;;5007338;28;20100;-69
2021/11/12 21:53:17;;;;;;;9.93;3.22;;;;;;;;;;5001811;28;20089;-69
2021/11/12 21:55:44;;;;;;;16.23;3.80;;;;;;;;;;5003112;28;20208;-69
2021/11/12 21:58:11;;;;;;;14.57;3.30;;;;;;;;;;4997599;28;20598;-69
2021/11/12 22:00:38;;;;;;;17.55;4.15;;;;;;;;;;5001338;28;20046;-69
2021/11/12 22:03:04;;;;;;;13.82;4.22;;;;;;;;;;5007314;28;20057;-69
2021/11/12 22:05:31;;;;;;;11.38;3.70;;;;;;;;;;5004383;28;20133;-69
2021/11/12 22:07:58;;;;;;;14.48;4.10;;;;;;;;;;5001622;28;20081;-69
2021/11/12 22:10:24;;;;;;;8.35;3.35;;;;;;;;;;5000263;28;20096;-69
2021/11/12 22:12:51;;;;;;;11.35;2.88;;;;;;;;;;5002546;28;20136;-69
2021/11/12 22:15:17;;;;;;;12.02;4.78;;;;;;;;;;5008916;28;20137;-70
2021/11/12 22:17:44;;;;;;;10.63;3.40;;;;;;;;;;4999500;28;20161;-69
2021/11/12 22:20:11;;;;;;;17.80;4.07;;;;;;;;;;4995596;28;20580;-69
2021/11/12 22:22:38;;;;;;;19.15;3.63;;;;;;;;;;5005152;28;20092;-69
2021/11/12 22:25:05;;;;;;;12.85;3.88;;;;;;;;;;5001186;28;20518;-69
2021/11/12 22:27:31;;;;;;;21.80;4.60;;;;;;;;;;4999408;28;20108;-69
2021/11/12 22:29:58;;;;;;;13.38;3.75;;;;;;;;;;4999374;28;20085;-69
2021/11/12 22:32:25;;;;;;;13.18;3.72;;;;;;;;;;5001373;28;20105;-69
2021/11/12 22:34:53;;;;;;;13.98;4.22;;;;;;;;;;5000172;28;20505;-70
2021/11/12 22:37:19;;;;;;;19.45;4.50;;;;;;;;;;5002829;28;20050;-69
2021/11/12 22:39:50;;;;;;;8.80;2.83;;;;;;;;;;4999933;28;20300;-69
2021/11/12 22:42:16;;;;;;;15.23;4.18;;;;;;;;;;4997202;28;20481;-70
2021/11/12 22:44:44;;;;;;;10.63;3.28;;;;;;;;;;5003219;28;20082;-69
2021/11/12 22:47:12;;;;;;;19.10;4.15;;;;;;;;;;4987319;28;20496;-69
2021/11/12 22:49:38;;;;;;;16.88;3.83;;;;;;;;;;5003472;28;20176;-69
2021/11/12 22:52:05;;;;;;;20.75;4.40;;;;;;;;;;4994893;28;20085;-69
2021/11/12 22:54:32;;;;;;;21.73;4.63;;;;;;;;;;5004407;28;20054;-69
2021/11/12 22:56:59;;;;;;;25.20;5.27;;;;;;;;;;4997926;28;20046;-69
2021/11/12 22:59:25;;;;;;;7.93;2.90;;;;;;;;;;5001614;28;20092;-69
2021/11/12 23:01:53;;;;;;;18.23;4.15;;;;;;;;;;5003654;28;20137;-69
2021/11/12 23:04:20;;;;;;;14.57;3.40;;;;;;;;;;4991352;28;20053;-69
2021/11/12 23:06:47;;;;;;;15.75;3.80;;;;;;;;;;5014313;28;20077;-69
2021/11/12 23:09:15;;;;;;;11.57;3.22;;;;;;;;;;5001108;28;20577;-69
2021/11/12 23:11:42;;;;;;;18.33;3.95;;;;;;;;;;5004221;28;20124;-69
2021/11/12 23:14:08;;;;;;;25.77;4.47;;;;;;;;;;4997743;28;20691;-69
2021/11/12 23:16:35;;;;;;;19.40;4.10;;;;;;;;;;4998949;28;20448;-69
2021/11/12 23:19:02;;;;;;;15.73;4.22;;;;;;;;;;5000622;28;20308;-69
2021/11/12 23:21:28;;;;;;;12.82;3.35;;;;;;;;;;5009890;28;20521;-69
2021/11/12 23:23:56;;;;;;;18.40;3.45;;;;;;;;;;5001622;28;20572;-69
2021/11/12 23:26:23;;;;;;;18.15;3.53;;;;;;;;;;5003338;28;20073;-69
2021/11/12 23:28:49;;;;;;;;;;;;;;;;;;5006407;28;20093;-69
2021/11/12 23:31:17;;;;;;;12.88;3.00;;;;;;;;;;5002258;28;19961;-69
2021/11/12 23:33:44;;;;;;;12.20;3.65;;;;;;;;;;5001417;28;20049;-69
2021/11/12 23:36:11;;;;;;;12.85;3.55;;;;;;;;;;4998266;28;20121;-70
2021/11/12 23:38:38;;;;;;;24.05;3.85;;;;;;;;;;5004431;28;20501;-69
2021/11/12 23:41:04;;;;;;;10.40;3.08;;;;;;;;;;5006983;28;20133;-69
2021/11/12 23:43:31;;;;;;;15.38;3.75;;;;;;;;;;5002214;28;20418;-69
2021/11/12 23:45:58;;;;;;;14.73;3.90;;;;;;;;;;4996421;28;20084;-69
2021/11/12 23:48:25;;;;;;;17.42;3.72;;;;;;;;;;5008144;28;20053;-70
2021/11/12 23:50:51;;;;;;;16.85;4.22;;;;;;;;;;5004330;28;20141;-69
2021/11/12 23:53:19;;;;;;;12.90;3.95;;;;;;;;;;5004447;28;20042;-69
2021/11/12 23:55:45;;;;;;;16.35;4.05;;;;;;;;;;5005345;28;20157;-70
2021/11/12 23:58:12;;;;;;;16.27;4.93;;;;;;;;;;5001048;28;20141;-69
